sensor_id;sensor_type;location;lat;lon;timestamp;P1;durP1;ratioP1;P2;durP2;ratioP2
47529;SDS011;33272;51.922;7.730;2022-07-21T00:00:17;18.00;;;16.10;;
47529;SDS011;33272;51.922;7.730;2022-07-21T00:02:46;17.10;;;15.30;;
47529;SDS011;33272;51.922;7.730;2022-07-21T00:05:15;17.57;;;15.60;;
47529;SDS011;33272;51.922;7.730;2022-07-21T00:07:43;17.23;;;15.47;;
47529;SDS011;33272;51.922;7.730;2022-07-21T00:10:10;16.40;;;14.70;;
47529;SDS011;33272;51.922;7.730;2022-07-21T00:12:39;18.10;;;16.20;;
47529;SDS011;33272;51.922;7.730;2022-07-21T00:15:07;22.97;;;17.10;;
47529;SDS011;33272;51.922;7.730;2022-07-21T00:17:35;17.70;;;15.97;;
47529;SDS011;33272;51.922;7.730;2022-07-21T00:20:03;20.03;;;15.83;;
47529;SDS011;33272;51.922;7.730;2022-07-21T00:22:34;18.43;;;16.50;;
47529;SDS011;33272;51.922;7.730;2022-07-21T00:25:02;18.23;;;16.43;;
47529;SDS011;33272;51.922;7.730;2022-07-21T00:27:30;17.53;;;15.57;;
47529;SDS011;33272;51.922;7.730;2022-07-21T00:29:57;24.10;;;16.60;;
47529;SDS011;33272;51.922;7.730;2022-07-21T00:32:24;18.73;;;16.47;;
47529;SDS011;33272;51.922;7.730;2022-07-21T00:34:52;18.70;;;16.43;;
47529;SDS011;33272;51.922;7.730;2022-07-21T00:37:19;18.87;;;15.83;;
47529;SDS011;33272;51.922;7.730;2022-07-21T00:39:50;18.03;;;15.30;;
47529;SDS011;33272;51.922;7.730;2022-07-21T00:42:21;17.40;;;15.60;;
47529;SDS011;33272;51.922;7.730;2022-07-21T00:44:49;16.47;;;14.70;;
47529;SDS011;33272;51.922;7.730;2022-07-21T00:47:18;17.20;;;15.23;;
47529;SDS011;33272;51.922;7.730;2022-07-21T00:49:46;16.37;;;14.77;;
47529;SDS011;33272;51.922;7.730;2022-07-21T00:52:14;17.93;;;15.63;;
47529;SDS011;33272;51.922;7.730;2022-07-21T00:54:41;16.17;;;14.47;;
47529;SDS011;33272;51.922;7.730;2022-07-21T00:57:10;16.77;;;15.07;;
47529;SDS011;33272;51.922;7.730;2022-07-21T00:59:39;16.03;;;14.53;;
47529;SDS011;33272;51.922;7.730;2022-07-21T01:02:07;15.07;;;13.47;;
47529;SDS011;33272;51.922;7.730;2022-07-21T01:04:35;15.87;;;14.37;;
47529;SDS011;33272;51.922;7.730;2022-07-21T01:07:04;15.87;;;14.17;;
47529;SDS011;33272;51.922;7.730;2022-07-21T01:09:33;15.90;;;13.77;;
47529;SDS011;33272;51.922;7.730;2022-07-21T01:12:01;15.20;;;13.60;;
47529;SDS011;33272;51.922;7.730;2022-07-21T01:14:30;14.97;;;12.80;;
47529;SDS011;33272;51.922;7.730;2022-07-21T01:16:58;16.00;;;13.37;;
47529;SDS011;33272;51.922;7.730;2022-07-21T01:19:27;14.83;;;13.43;;
47529;SDS011;33272;51.922;7.730;2022-07-21T01:21:56;14.00;;;12.60;;
47529;SDS011;33272;51.922;7.730;2022-07-21T01:24:24;14.53;;;13.03;;
47529;SDS011;33272;51.922;7.730;2022-07-21T01:26:51;14.60;;;12.80;;
47529;SDS011;33272;51.922;7.730;2022-07-21T01:29:20;14.67;;;13.03;;
47529;SDS011;33272;51.922;7.730;2022-07-21T01:31:48;13.67;;;12.23;;
47529;SDS011;33272;51.922;7.730;2022-07-21T01:34:15;14.30;;;12.90;;
47529;SDS011;33272;51.922;7.730;2022-07-21T01:36:44;14.63;;;13.03;;
47529;SDS011;33272;51.922;7.730;2022-07-21T01:39:13;14.73;;;13.20;;
47529;SDS011;33272;51.922;7.730;2022-07-21T01:41:58;14.80;;;13.40;;
47529;SDS011;33272;51.922;7.730;2022-07-21T01:44:25;16.40;;;14.67;;
47529;SDS011;33272;51.922;7.730;2022-07-21T01:46:53;15.97;;;13.93;;
47529;SDS011;33272;51.922;7.730;2022-07-21T01:49:20;14.87;;;13.37;;
47529;SDS011;33272;51.922;7.730;2022-07-21T01:51:48;14.73;;;13.23;;
47529;SDS011;33272;51.922;7.730;2022-07-21T01:54:17;15.27;;;13.77;;
47529;SDS011;33272;51.922;7.730;2022-07-21T01:56:45;15.70;;;13.87;;
47529;SDS011;33272;51.922;7.730;2022-07-21T01:59:12;15.73;;;14.13;;
47529;SDS011;33272;51.922;7.730;2022-07-21T02:01:39;16.10;;;14.50;;
47529;SDS011;33272;51.922;7.730;2022-07-21T02:11:30;16.97;;;15.00;;
47529;SDS011;33272;51.922;7.730;2022-07-21T02:13:57;16.83;;;14.30;;
47529;SDS011;33272;51.922;7.730;2022-07-21T02:16:24;15.90;;;14.10;;
47529;SDS011;33272;51.922;7.730;2022-07-21T02:18:51;15.80;;;14.20;;
47529;SDS011;33272;51.922;7.730;2022-07-21T02:21:19;15.27;;;13.77;;
47529;SDS011;33272;51.922;7.730;2022-07-21T02:23:46;15.27;;;13.63;;
47529;SDS011;33272;51.922;7.730;2022-07-21T02:26:13;12.87;;;11.67;;
47529;SDS011;33272;51.922;7.730;2022-07-21T02:28:42;12.13;;;10.87;;
47529;SDS011;33272;51.922;7.730;2022-07-21T02:31:09;12.00;;;10.77;;
47529;SDS011;33272;51.922;7.730;2022-07-21T02:33:36;12.40;;;9.90;;
47529;SDS011;33272;51.922;7.730;2022-07-21T02:36:04;11.30;;;10.10;;
47529;SDS011;33272;51.922;7.730;2022-07-21T02:38:32;10.00;;;9.00;;
47529;SDS011;33272;51.922;7.730;2022-07-21T02:40:59;9.93;;;8.87;;
47529;SDS011;33272;51.922;7.730;2022-07-21T02:43:26;8.93;;;7.90;;
47529;SDS011;33272;51.922;7.730;2022-07-21T02:45:54;9.40;;;8.50;;
47529;SDS011;33272;51.922;7.730;2022-07-21T02:48:21;8.83;;;7.87;;
47529;SDS011;33272;51.922;7.730;2022-07-21T02:50:48;7.80;;;7.00;;
47529;SDS011;33272;51.922;7.730;2022-07-21T02:53:16;8.63;;;7.70;;
47529;SDS011;33272;51.922;7.730;2022-07-21T02:55:45;6.83;;;6.20;;
47529;SDS011;33272;51.922;7.730;2022-07-21T02:58:13;7.23;;;6.53;;
47529;SDS011;33272;51.922;7.730;2022-07-21T03:00:44;8.83;;;6.97;;
47529;SDS011;33272;51.922;7.730;2022-07-21T03:03:16;7.53;;;6.77;;
47529;SDS011;33272;51.922;7.730;2022-07-21T03:05:43;8.70;;;7.80;;
47529;SDS011;33272;51.922;7.730;2022-07-21T03:08:10;9.27;;;8.27;;
47529;SDS011;33272;51.922;7.730;2022-07-21T03:10:38;8.83;;;8.03;;
47529;SDS011;33272;51.922;7.730;2022-07-21T03:13:07;9.17;;;8.27;;
47529;SDS011;33272;51.922;7.730;2022-07-21T03:15:34;10.00;;;8.87;;
47529;SDS011;33272;51.922;7.730;2022-07-21T03:18:02;10.20;;;9.20;;
47529;SDS011;33272;51.922;7.730;2022-07-21T03:20:33;9.00;;;8.20;;
47529;SDS011;33272;51.922;7.730;2022-07-21T03:23:02;9.23;;;8.30;;
47529;SDS011;33272;51.922;7.730;2022-07-21T03:25:30;10.13;;;8.67;;
47529;SDS011;33272;51.922;7.730;2022-07-21T03:27:57;9.03;;;8.23;;
47529;SDS011;33272;51.922;7.730;2022-07-21T03:30:25;9.50;;;8.60;;
47529;SDS011;33272;51.922;7.730;2022-07-21T03:32:53;10.57;;;9.27;;
47529;SDS011;33272;51.922;7.730;2022-07-21T03:35:21;9.53;;;8.63;;
47529;SDS011;33272;51.922;7.730;2022-07-21T03:37:50;9.70;;;8.63;;
47529;SDS011;33272;51.922;7.730;2022-07-21T03:40:20;8.50;;;7.60;;
47529;SDS011;33272;51.922;7.730;2022-07-21T03:42:50;9.17;;;8.27;;
47529;SDS011;33272;51.922;7.730;2022-07-21T03:45:17;9.03;;;8.13;;
47529;SDS011;33272;51.922;7.730;2022-07-21T03:47:45;9.67;;;8.43;;
47529;SDS011;33272;51.922;7.730;2022-07-21T03:50:13;9.40;;;8.50;;
47529;SDS011;33272;51.922;7.730;2022-07-21T03:52:42;9.40;;;8.40;;
47529;SDS011;33272;51.922;7.730;2022-07-21T03:55:10;10.03;;;9.07;;
47529;SDS011;33272;51.922;7.730;2022-07-21T03:57:40;10.37;;;9.37;;
47529;SDS011;33272;51.922;7.730;2022-07-21T04:00:11;10.67;;;9.57;;
47529;SDS011;33272;51.922;7.730;2022-07-21T04:02:42;11.30;;;10.23;;
47529;SDS011;33272;51.922;7.730;2022-07-21T04:05:09;12.67;;;10.77;;
47529;SDS011;33272;51.922;7.730;2022-07-21T04:07:38;11.17;;;10.03;;
47529;SDS011;33272;51.922;7.730;2022-07-21T04:10:06;11.47;;;10.30;;
47529;SDS011;33272;51.922;7.730;2022-07-21T04:12:36;12.13;;;10.97;;
47529;SDS011;33272;51.922;7.730;2022-07-21T04:15:04;11.67;;;10.60;;
47529;SDS011;33272;51.922;7.730;2022-07-21T04:17:33;11.20;;;10.17;;
47529;SDS011;33272;51.922;7.730;2022-07-21T04:20:02;11.60;;;10.50;;
47529;SDS011;33272;51.922;7.730;2022-07-21T04:22:31;10.60;;;9.60;;
47529;SDS011;33272;51.922;7.730;2022-07-21T04:24:58;12.00;;;10.27;;
47529;SDS011;33272;51.922;7.730;2022-07-21T04:27:25;10.57;;;9.57;;
47529;SDS011;33272;51.922;7.730;2022-07-21T04:29:54;9.87;;;8.97;;
47529;SDS011;33272;51.922;7.730;2022-07-21T04:32:21;9.93;;;8.93;;
47529;SDS011;33272;51.922;7.730;2022-07-21T04:34:48;10.60;;;9.60;;
47529;SDS011;33272;51.922;7.730;2022-07-21T04:37:16;10.47;;;9.50;;
47529;SDS011;33272;51.922;7.730;2022-07-21T04:39:43;12.93;;;11.63;;
47529;SDS011;33272;51.922;7.730;2022-07-21T04:42:10;12.33;;;11.10;;
47529;SDS011;33272;51.922;7.730;2022-07-21T04:44:37;12.90;;;11.60;;
47529;SDS011;33272;51.922;7.730;2022-07-21T04:47:06;14.23;;;12.80;;
47529;SDS011;33272;51.922;7.730;2022-07-21T04:49:33;12.93;;;11.73;;
47529;SDS011;33272;51.922;7.730;2022-07-21T04:52:00;13.80;;;12.43;;
47529;SDS011;33272;51.922;7.730;2022-07-21T04:54:28;15.07;;;11.87;;
47529;SDS011;33272;51.922;7.730;2022-07-21T04:56:55;12.70;;;11.40;;
47529;SDS011;33272;51.922;7.730;2022-07-21T04:59:22;11.97;;;10.80;;
47529;SDS011;33272;51.922;7.730;2022-07-21T05:01:50;12.37;;;11.00;;
47529;SDS011;33272;51.922;7.730;2022-07-21T05:04:18;14.13;;;11.40;;
47529;SDS011;33272;51.922;7.730;2022-07-21T05:06:45;13.93;;;12.17;;
47529;SDS011;33272;51.922;7.730;2022-07-21T05:09:12;14.37;;;12.87;;
47529;SDS011;33272;51.922;7.730;2022-07-21T05:11:39;14.47;;;13.07;;
47529;SDS011;33272;51.922;7.730;2022-07-21T05:14:06;16.60;;;14.80;;
47529;SDS011;33272;51.922;7.730;2022-07-21T05:16:33;16.97;;;15.17;;
47529;SDS011;33272;51.922;7.730;2022-07-21T05:19:00;17.90;;;16.10;;
47529;SDS011;33272;51.922;7.730;2022-07-21T05:21:29;18.33;;;16.30;;
47529;SDS011;33272;51.922;7.730;2022-07-21T05:23:56;17.47;;;15.13;;
47529;SDS011;33272;51.922;7.730;2022-07-21T05:26:23;16.47;;;14.67;;
47529;SDS011;33272;51.922;7.730;2022-07-21T05:28:50;17.03;;;14.87;;
47529;SDS011;33272;51.922;7.730;2022-07-21T05:31:17;16.87;;;14.53;;
47529;SDS011;33272;51.922;7.730;2022-07-21T05:33:44;17.47;;;15.67;;
47529;SDS011;33272;51.922;7.730;2022-07-21T05:36:11;19.10;;;15.63;;
47529;SDS011;33272;51.922;7.730;2022-07-21T05:38:40;18.27;;;16.27;;
47529;SDS011;33272;51.922;7.730;2022-07-21T05:41:07;15.97;;;14.47;;
47529;SDS011;33272;51.922;7.730;2022-07-21T05:43:34;16.83;;;15.13;;
47529;SDS011;33272;51.922;7.730;2022-07-21T05:46:01;16.50;;;14.90;;
47529;SDS011;33272;51.922;7.730;2022-07-21T05:48:28;16.30;;;14.60;;
47529;SDS011;33272;51.922;7.730;2022-07-21T05:50:55;15.97;;;14.33;;
47529;SDS011;33272;51.922;7.730;2022-07-21T05:53:22;16.23;;;14.37;;
47529;SDS011;33272;51.922;7.730;2022-07-21T05:55:51;14.67;;;13.17;;
47529;SDS011;33272;51.922;7.730;2022-07-21T05:58:18;14.30;;;12.83;;
47529;SDS011;33272;51.922;7.730;2022-07-21T06:00:49;15.20;;;13.60;;
47529;SDS011;33272;51.922;7.730;2022-07-21T06:03:30;14.50;;;13.00;;
47529;SDS011;33272;51.922;7.730;2022-07-21T06:05:57;14.57;;;13.10;;
47529;SDS011;33272;51.922;7.730;2022-07-21T06:08:24;16.20;;;12.67;;
47529;SDS011;33272;51.922;7.730;2022-07-21T06:10:52;17.13;;;14.23;;
47529;SDS011;33272;51.922;7.730;2022-07-21T06:13:19;15.30;;;12.67;;
47529;SDS011;33272;51.922;7.730;2022-07-21T06:15:46;14.57;;;13.13;;
47529;SDS011;33272;51.922;7.730;2022-07-21T06:18:13;13.10;;;11.43;;
47529;SDS011;33272;51.922;7.730;2022-07-21T06:20:40;14.10;;;12.70;;
47529;SDS011;33272;51.922;7.730;2022-07-21T06:23:08;13.80;;;12.30;;
47529;SDS011;33272;51.922;7.730;2022-07-21T06:25:35;14.27;;;12.77;;
47529;SDS011;33272;51.922;7.730;2022-07-21T06:28:05;13.87;;;12.13;;
47529;SDS011;33272;51.922;7.730;2022-07-21T06:30:32;13.93;;;12.43;;
47529;SDS011;33272;51.922;7.730;2022-07-21T06:32:59;14.57;;;12.90;;
47529;SDS011;33272;51.922;7.730;2022-07-21T06:35:26;14.67;;;12.47;;
47529;SDS011;33272;51.922;7.730;2022-07-21T06:37:53;14.30;;;12.80;;
47529;SDS011;33272;51.922;7.730;2022-07-21T06:40:20;13.67;;;12.27;;
47529;SDS011;33272;51.922;7.730;2022-07-21T06:42:48;14.37;;;13.00;;
47529;SDS011;33272;51.922;7.730;2022-07-21T06:45:16;13.50;;;11.93;;
47529;SDS011;33272;51.922;7.730;2022-07-21T06:47:44;13.63;;;12.40;;
47529;SDS011;33272;51.922;7.730;2022-07-21T06:50:11;14.23;;;12.83;;
47529;SDS011;33272;51.922;7.730;2022-07-21T06:52:38;14.43;;;12.97;;
47529;SDS011;33272;51.922;7.730;2022-07-21T06:55:06;15.00;;;13.47;;
47529;SDS011;33272;51.922;7.730;2022-07-21T06:57:35;15.33;;;13.83;;
47529;SDS011;33272;51.922;7.730;2022-07-21T07:00:03;15.43;;;13.90;;
47529;SDS011;33272;51.922;7.730;2022-07-21T07:02:34;16.63;;;14.93;;
47529;SDS011;33272;51.922;7.730;2022-07-21T07:05:01;17.53;;;15.73;;
47529;SDS011;33272;51.922;7.730;2022-07-21T07:07:29;16.30;;;14.80;;
47529;SDS011;33272;51.922;7.730;2022-07-21T07:09:56;18.77;;;15.70;;
47529;SDS011;33272;51.922;7.730;2022-07-21T07:12:24;17.40;;;15.70;;
47529;SDS011;33272;51.922;7.730;2022-07-21T07:14:52;16.47;;;14.77;;
47529;SDS011;33272;51.922;7.730;2022-07-21T07:17:19;17.10;;;15.30;;
47529;SDS011;33272;51.922;7.730;2022-07-21T07:19:47;17.27;;;15.53;;
47529;SDS011;33272;51.922;7.730;2022-07-21T07:22:14;15.60;;;14.10;;
47529;SDS011;33272;51.922;7.730;2022-07-21T07:24:42;15.07;;;13.70;;
47529;SDS011;33272;51.922;7.730;2022-07-21T07:27:09;15.67;;;14.07;;
47529;SDS011;33272;51.922;7.730;2022-07-21T07:29:36;15.73;;;14.23;;
47529;SDS011;33272;51.922;7.730;2022-07-21T07:32:03;15.73;;;14.13;;
47529;SDS011;33272;51.922;7.730;2022-07-21T07:34:31;14.53;;;13.13;;
47529;SDS011;33272;51.922;7.730;2022-07-21T07:36:59;14.37;;;12.97;;
47529;SDS011;33272;51.922;7.730;2022-07-21T07:39:26;14.07;;;12.53;;
47529;SDS011;33272;51.922;7.730;2022-07-21T07:41:54;11.97;;;10.83;;
47529;SDS011;33272;51.922;7.730;2022-07-21T07:44:21;13.33;;;11.93;;
47529;SDS011;33272;51.922;7.730;2022-07-21T07:46:49;13.40;;;11.67;;
47529;SDS011;33272;51.922;7.730;2022-07-21T07:49:16;13.30;;;12.00;;
47529;SDS011;33272;51.922;7.730;2022-07-21T07:51:43;14.03;;;12.63;;
47529;SDS011;33272;51.922;7.730;2022-07-21T07:54:12;14.03;;;12.73;;
47529;SDS011;33272;51.922;7.730;2022-07-21T07:56:39;11.97;;;10.83;;
47529;SDS011;33272;51.922;7.730;2022-07-21T07:59:06;13.03;;;11.77;;
47529;SDS011;33272;51.922;7.730;2022-07-21T08:01:34;13.73;;;11.77;;
47529;SDS011;33272;51.922;7.730;2022-07-21T08:04:01;13.83;;;11.80;;
47529;SDS011;33272;51.922;7.730;2022-07-21T08:06:28;13.10;;;11.90;;
47529;SDS011;33272;51.922;7.730;2022-07-21T08:08:55;12.20;;;11.07;;
47529;SDS011;33272;51.922;7.730;2022-07-21T08:11:24;14.53;;;12.03;;
47529;SDS011;33272;51.922;7.730;2022-07-21T08:13:51;13.73;;;11.43;;
47529;SDS011;33272;51.922;7.730;2022-07-21T08:16:18;12.57;;;11.37;;
47529;SDS011;33272;51.922;7.730;2022-07-21T08:18:45;13.40;;;11.60;;
47529;SDS011;33272;51.922;7.730;2022-07-21T08:21:12;14.03;;;12.77;;
47529;SDS011;33272;51.922;7.730;2022-07-21T08:23:39;13.30;;;11.97;;
47529;SDS011;33272;51.922;7.730;2022-07-21T08:26:07;12.67;;;11.27;;
47529;SDS011;33272;51.922;7.730;2022-07-21T08:28:35;13.97;;;12.00;;
47529;SDS011;33272;51.922;7.730;2022-07-21T08:31:02;13.10;;;11.73;;
47529;SDS011;33272;51.922;7.730;2022-07-21T08:33:30;12.90;;;10.93;;
47529;SDS011;33272;51.922;7.730;2022-07-21T08:35:57;10.50;;;9.53;;
47529;SDS011;33272;51.922;7.730;2022-07-21T08:38:24;11.20;;;9.90;;
47529;SDS011;33272;51.922;7.730;2022-07-21T08:40:51;11.87;;;10.77;;
47529;SDS011;33272;51.922;7.730;2022-07-21T08:43:18;11.00;;;10.00;;
47529;SDS011;33272;51.922;7.730;2022-07-21T08:45:47;10.73;;;9.63;;
47529;SDS011;33272;51.922;7.730;2022-07-21T08:48:15;12.00;;;10.80;;
47529;SDS011;33272;51.922;7.730;2022-07-21T08:50:49;13.23;;;10.67;;
47529;SDS011;33272;51.922;7.730;2022-07-21T08:53:17;10.93;;;9.33;;
47529;SDS011;33272;51.922;7.730;2022-07-21T08:55:44;13.17;;;9.87;;
47529;SDS011;33272;51.922;7.730;2022-07-21T08:58:11;10.23;;;9.33;;
47529;SDS011;33272;51.922;7.730;2022-07-21T09:00:40;11.53;;;9.17;;
47529;SDS011;33272;51.922;7.730;2022-07-21T09:03:15;10.67;;;9.67;;
47529;SDS011;33272;51.922;7.730;2022-07-21T09:05:57;9.43;;;8.53;;
47529;SDS011;33272;51.922;7.730;2022-07-21T09:08:28;10.17;;;9.10;;
47529;SDS011;33272;51.922;7.730;2022-07-21T09:11:07;11.07;;;9.20;;
47529;SDS011;33272;51.922;7.730;2022-07-21T09:13:36;9.97;;;8.97;;
47529;SDS011;33272;51.922;7.730;2022-07-21T09:16:06;9.33;;;8.50;;
47529;SDS011;33272;51.922;7.730;2022-07-21T09:18:34;9.43;;;8.43;;
47529;SDS011;33272;51.922;7.730;2022-07-21T09:21:12;9.57;;;7.07;;
47529;SDS011;33272;51.922;7.730;2022-07-21T09:23:41;8.47;;;7.63;;
47529;SDS011;33272;51.922;7.730;2022-07-21T09:26:08;7.83;;;7.13;;
47529;SDS011;33272;51.922;7.730;2022-07-21T09:28:35;8.77;;;6.47;;
47529;SDS011;33272;51.922;7.730;2022-07-21T09:31:04;8.60;;;6.27;;
47529;SDS011;33272;51.922;7.730;2022-07-21T09:33:35;8.07;;;6.00;;
47529;SDS011;33272;51.922;7.730;2022-07-21T09:36:05;7.67;;;5.93;;
47529;SDS011;33272;51.922;7.730;2022-07-21T09:38:35;7.47;;;6.27;;
47529;SDS011;33272;51.922;7.730;2022-07-21T09:41:09;8.97;;;5.87;;
47529;SDS011;33272;51.922;7.730;2022-07-21T09:43:39;6.50;;;5.90;;
47529;SDS011;33272;51.922;7.730;2022-07-21T09:46:11;7.27;;;6.37;;
47529;SDS011;33272;51.922;7.730;2022-07-21T09:48:43;7.67;;;6.10;;
47529;SDS011;33272;51.922;7.730;2022-07-21T09:51:22;6.30;;;5.67;;
47529;SDS011;33272;51.922;7.730;2022-07-21T09:53:56;6.77;;;6.17;;
47529;SDS011;33272;51.922;7.730;2022-07-21T09:56:26;8.33;;;6.40;;
47529;SDS011;33272;51.922;7.730;2022-07-21T09:58:56;7.23;;;6.50;;
47529;SDS011;33272;51.922;7.730;2022-07-21T10:01:26;7.57;;;6.20;;
47529;SDS011;33272;51.922;7.730;2022-07-21T10:03:55;6.27;;;5.60;;
47529;SDS011;33272;51.922;7.730;2022-07-21T10:06:25;6.63;;;5.93;;
47529;SDS011;33272;51.922;7.730;2022-07-21T10:08:56;6.87;;;6.00;;
47529;SDS011;33272;51.922;7.730;2022-07-21T10:11:24;6.13;;;5.63;;
47529;SDS011;33272;51.922;7.730;2022-07-21T10:13:53;6.73;;;6.13;;
47529;SDS011;33272;51.922;7.730;2022-07-21T10:16:21;6.30;;;5.80;;
47529;SDS011;33272;51.922;7.730;2022-07-21T10:18:58;9.23;;;6.33;;
47529;SDS011;33272;51.922;7.730;2022-07-21T10:21:45;8.70;;;6.40;;
47529;SDS011;33272;51.922;7.730;2022-07-21T10:24:18;7.70;;;6.90;;
47529;SDS011;33272;51.922;7.730;2022-07-21T10:27:02;8.13;;;7.43;;
47529;SDS011;33272;51.922;7.730;2022-07-21T10:29:48;8.53;;;6.97;;
47529;SDS011;33272;51.922;7.730;2022-07-21T10:32:23;9.30;;;7.60;;
47529;SDS011;33272;51.922;7.730;2022-07-21T10:34:54;7.80;;;7.10;;
47529;SDS011;33272;51.922;7.730;2022-07-21T10:37:42;8.20;;;7.50;;
47529;SDS011;33272;51.922;7.730;2022-07-21T10:49:02;7.57;;;6.87;;
47529;SDS011;33272;51.922;7.730;2022-07-21T10:51:33;6.67;;;6.07;;
47529;SDS011;33272;51.922;7.730;2022-07-21T11:02:54;7.57;;;5.10;;
47529;SDS011;33272;51.922;7.730;2022-07-21T11:05:23;5.33;;;4.83;;
47529;SDS011;33272;51.922;7.730;2022-07-21T11:08:12;5.60;;;4.97;;
47529;SDS011;33272;51.922;7.730;2022-07-21T11:10:43;6.90;;;4.60;;
47529;SDS011;33272;51.922;7.730;2022-07-21T11:13:12;6.73;;;4.90;;
47529;SDS011;33272;51.922;7.730;2022-07-21T11:15:44;4.93;;;4.43;;
47529;SDS011;33272;51.922;7.730;2022-07-21T11:18:24;5.77;;;4.60;;
47529;SDS011;33272;51.922;7.730;2022-07-21T11:21:04;5.20;;;4.70;;
47529;SDS011;33272;51.922;7.730;2022-07-21T11:23:38;6.43;;;4.27;;
47529;SDS011;33272;51.922;7.730;2022-07-21T11:26:09;6.10;;;4.20;;
47529;SDS011;33272;51.922;7.730;2022-07-21T11:28:39;5.23;;;4.57;;
47529;SDS011;33272;51.922;7.730;2022-07-21T11:31:10;5.50;;;3.87;;
47529;SDS011;33272;51.922;7.730;2022-07-21T11:33:42;5.40;;;4.13;;
47529;SDS011;33272;51.922;7.730;2022-07-21T11:36:11;6.83;;;4.70;;
47529;SDS011;33272;51.922;7.730;2022-07-21T11:38:59;4.40;;;4.00;;
47529;SDS011;33272;51.922;7.730;2022-07-21T11:41:30;5.50;;;4.10;;
47529;SDS011;33272;51.922;7.730;2022-07-21T11:43:58;5.43;;;4.80;;
47529;SDS011;33272;51.922;7.730;2022-07-21T11:46:25;4.80;;;4.33;;
47529;SDS011;33272;51.922;7.730;2022-07-21T11:49:03;6.93;;;5.40;;
47529;SDS011;33272;51.922;7.730;2022-07-21T11:51:31;6.93;;;5.00;;
47529;SDS011;33272;51.922;7.730;2022-07-21T11:54:00;6.10;;;5.00;;
47529;SDS011;33272;51.922;7.730;2022-07-21T11:56:27;6.00;;;5.40;;
47529;SDS011;33272;51.922;7.730;2022-07-21T11:59:07;6.20;;;5.03;;
47529;SDS011;33272;51.922;7.730;2022-07-21T12:01:47;6.67;;;6.03;;
47529;SDS011;33272;51.922;7.730;2022-07-21T12:04:36;7.47;;;6.07;;
47529;SDS011;33272;51.922;7.730;2022-07-21T12:07:09;6.60;;;5.87;;
47529;SDS011;33272;51.922;7.730;2022-07-21T12:09:48;6.17;;;5.67;;
47529;SDS011;33272;51.922;7.730;2022-07-21T12:12:27;7.70;;;6.13;;
47529;SDS011;33272;51.922;7.730;2022-07-21T12:14:57;6.60;;;5.70;;
47529;SDS011;33272;51.922;7.730;2022-07-21T12:17:36;5.40;;;4.90;;
47529;SDS011;33272;51.922;7.730;2022-07-21T12:20:05;5.23;;;4.73;;
47529;SDS011;33272;51.922;7.730;2022-07-21T12:22:35;6.17;;;4.87;;
47529;SDS011;33272;51.922;7.730;2022-07-21T12:25:10;6.00;;;5.40;;
47529;SDS011;33272;51.922;7.730;2022-07-21T12:27:39;5.97;;;5.37;;
47529;SDS011;33272;51.922;7.730;2022-07-21T12:30:10;7.80;;;5.53;;
47529;SDS011;33272;51.922;7.730;2022-07-21T12:33:00;7.70;;;6.97;;
47529;SDS011;33272;51.922;7.730;2022-07-21T12:35:31;8.17;;;7.37;;
47529;SDS011;33272;51.922;7.730;2022-07-21T12:37:59;8.87;;;7.97;;
47529;SDS011;33272;51.922;7.730;2022-07-21T12:40:32;11.00;;;9.37;;
47529;SDS011;33272;51.922;7.730;2022-07-21T12:43:08;9.87;;;8.87;;
47529;SDS011;33272;51.922;7.730;2022-07-21T12:45:47;11.27;;;10.17;;
47529;SDS011;33272;51.922;7.730;2022-07-21T12:48:23;10.57;;;9.40;;
47529;SDS011;33272;51.922;7.730;2022-07-21T12:51:03;10.87;;;9.93;;
47529;SDS011;33272;51.922;7.730;2022-07-21T12:53:39;10.80;;;9.57;;
47529;SDS011;33272;51.922;7.730;2022-07-21T12:56:14;11.33;;;9.93;;
47529;SDS011;33272;51.922;7.730;2022-07-21T12:58:44;10.87;;;9.77;;
47529;SDS011;33272;51.922;7.730;2022-07-21T13:01:12;9.93;;;8.93;;
47529;SDS011;33272;51.922;7.730;2022-07-21T13:03:40;10.13;;;9.10;;
47529;SDS011;33272;51.922;7.730;2022-07-21T13:06:08;9.77;;;8.77;;
47529;SDS011;33272;51.922;7.730;2022-07-21T13:08:36;8.90;;;8.00;;
47529;SDS011;33272;51.922;7.730;2022-07-21T13:11:04;8.97;;;8.17;;
47529;SDS011;33272;51.922;7.730;2022-07-21T13:13:33;9.53;;;8.70;;
47529;SDS011;33272;51.922;7.730;2022-07-21T13:16:01;9.00;;;8.10;;
47529;SDS011;33272;51.922;7.730;2022-07-21T13:18:28;9.30;;;8.37;;
47529;SDS011;33272;51.922;7.730;2022-07-21T13:20:56;9.30;;;8.40;;
47529;SDS011;33272;51.922;7.730;2022-07-21T13:23:23;9.47;;;8.50;;
47529;SDS011;33272;51.922;7.730;2022-07-21T13:25:50;8.53;;;7.73;;
47529;SDS011;33272;51.922;7.730;2022-07-21T13:28:17;9.20;;;8.30;;
47529;SDS011;33272;51.922;7.730;2022-07-21T13:30:46;9.63;;;8.77;;
47529;SDS011;33272;51.922;7.730;2022-07-21T13:33:13;10.20;;;9.30;;
47529;SDS011;33272;51.922;7.730;2022-07-21T13:35:40;10.10;;;9.10;;
47529;SDS011;33272;51.922;7.730;2022-07-21T13:38:08;9.83;;;8.47;;
47529;SDS011;33272;51.922;7.730;2022-07-21T13:40:35;8.80;;;8.00;;
47529;SDS011;33272;51.922;7.730;2022-07-21T13:43:03;8.43;;;7.63;;
47529;SDS011;33272;51.922;7.730;2022-07-21T13:45:31;8.57;;;7.60;;
47529;SDS011;33272;51.922;7.730;2022-07-21T13:47:59;7.73;;;7.03;;
47529;SDS011;33272;51.922;7.730;2022-07-21T13:50:27;8.47;;;7.67;;
47529;SDS011;33272;51.922;7.730;2022-07-21T13:52:54;8.47;;;7.67;;
47529;SDS011;33272;51.922;7.730;2022-07-21T13:55:21;8.03;;;7.30;;
47529;SDS011;33272;51.922;7.730;2022-07-21T13:57:48;7.73;;;7.07;;
47529;SDS011;33272;51.922;7.730;2022-07-21T14:00:16;9.00;;;8.20;;
47529;SDS011;33272;51.922;7.730;2022-07-21T14:02:43;7.37;;;6.67;;
47529;SDS011;33272;51.922;7.730;2022-07-21T14:05:11;7.67;;;6.97;;
47529;SDS011;33272;51.922;7.730;2022-07-21T14:07:38;7.07;;;6.43;;
47529;SDS011;33272;51.922;7.730;2022-07-21T14:10:06;7.03;;;6.33;;
47529;SDS011;33272;51.922;7.730;2022-07-21T14:12:34;5.90;;;5.40;;
47529;SDS011;33272;51.922;7.730;2022-07-21T14:15:01;5.57;;;4.20;;
47529;SDS011;33272;51.922;7.730;2022-07-21T14:17:29;5.20;;;4.70;;
47529;SDS011;33272;51.922;7.730;2022-07-21T14:19:56;4.33;;;3.93;;
47529;SDS011;33272;51.922;7.730;2022-07-21T14:22:24;4.37;;;4.03;;
47529;SDS011;33272;51.922;7.730;2022-07-21T14:24:51;7.83;;;5.50;;
47529;SDS011;33272;51.922;7.730;2022-07-21T14:30:07;3.80;;;3.50;;
47529;SDS011;33272;51.922;7.730;2022-07-21T14:32:35;2.93;;;2.63;;
47529;SDS011;33272;51.922;7.730;2022-07-21T14:35:02;3.00;;;2.60;;
47529;SDS011;33272;51.922;7.730;2022-07-21T14:37:31;2.27;;;2.07;;
47529;SDS011;33272;51.922;7.730;2022-07-21T14:39:59;2.30;;;2.10;;
47529;SDS011;33272;51.922;7.730;2022-07-21T14:42:26;2.87;;;2.60;;
47529;SDS011;33272;51.922;7.730;2022-07-21T14:44:53;2.30;;;2.10;;
47529;SDS011;33272;51.922;7.730;2022-07-21T14:47:21;2.50;;;2.30;;
47529;SDS011;33272;51.922;7.730;2022-07-21T14:49:48;2.77;;;2.37;;
47529;SDS011;33272;51.922;7.730;2022-07-21T14:52:15;2.70;;;2.50;;
47529;SDS011;33272;51.922;7.730;2022-07-21T14:54:44;3.10;;;2.80;;
47529;SDS011;33272;51.922;7.730;2022-07-21T14:57:11;2.63;;;2.43;;
47529;SDS011;33272;51.922;7.730;2022-07-21T14:59:38;3.07;;;2.50;;
47529;SDS011;33272;51.922;7.730;2022-07-21T15:02:05;2.70;;;2.50;;
47529;SDS011;33272;51.922;7.730;2022-07-21T15:04:33;3.37;;;3.07;;
47529;SDS011;33272;51.922;7.730;2022-07-21T15:07:00;3.00;;;2.73;;
47529;SDS011;33272;51.922;7.730;2022-07-21T15:09:27;2.80;;;2.60;;
47529;SDS011;33272;51.922;7.730;2022-07-21T15:11:55;3.37;;;2.70;;